Time;durP1;ratioP1;P1;durP2;ratioP2;P2;SDS_P1;SDS_P2;PMS_P1;PMS_P2;Temp;Humidity;BMP_temperature;BMP_pressure;BME280_temperature;BME280_humidity;BME280_pressure;Samples;Min_cycle;Max_cycle;Signal;HPM_P1;HPM_P2
2022/10/04 00:00:24;;;;;;;3.53;1.90;;;12.90;99.90;;;;;;4978948;28;20117;-79
2022/10/04 00:02:55;;;;;;;3.65;1.80;;;12.80;99.90;;;;;;4986584;28;20026;-80
2022/10/04 00:05:27;;;;;;;3.90;1.83;;;12.80;99.90;;;;;;4975202;28;20030;-78
2022/10/04 00:07:59;;;;;;;3.75;2.20;;;12.80;99.90;;;;;;4984917;28;20070;-78
2022/10/04 00:10:33;;;;;;;4.25;2.10;;;12.80;99.90;;;;;;4979920;28;20023;-78
2022/10/04 00:13:01;;;;;;;4.38;1.90;;;12.80;99.90;;;;;;4978644;28;20037;-79
2022/10/04 00:15:40;;;;;;;3.55;1.95;;;12.80;99.90;;;;;;4976585;28;20050;-79
2022/10/04 00:18:27;;;;;;;4.75;1.92;;;12.80;99.90;;;;;;4961614;28;20066;-80
2022/10/04 00:20:53;;;;;;;4.05;2.03;;;12.80;99.90;;;;;;4983460;28;20054;-80
2022/10/04 00:23:37;;;;;;;4.47;2.15;;;12.80;99.90;;;;;;4974870;28;20440;-80
2022/10/04 00:26:11;;;;;;;5.90;2.17;;;12.90;99.90;;;;;;4979068;28;20447;-80
2022/10/04 00:28:42;;;;;;;3.92;2.10;;;12.80;99.90;;;;;;4976341;28;20110;-80
2022/10/04 00:31:23;;;;;;;2.63;1.65;;;12.80;99.90;;;;;;4982918;28;20030;-80
2022/10/04 00:34:15;;;;;;;3.30;1.70;;;12.90;99.90;;;;;;4975108;28;20014;-80
2022/10/04 00:36:56;;;;;;;2.83;1.60;;;12.90;99.90;;;;;;4977291;28;20034;-80
2022/10/04 00:39:33;;;;;;;3.15;1.85;;;12.90;99.90;;;;;;4964335;28;20039;-79
2022/10/04 00:42:05;;;;;;;3.05;1.90;;;12.80;99.90;;;;;;4988680;28;20023;-79
2022/10/04 00:44:37;;;;;;;4.37;2.10;;;12.80;99.90;;;;;;4977762;28;20018;-80
2022/10/04 00:47:17;;;;;;;3.95;2.03;;;12.80;99.90;;;;;;4981183;28;20058;-80
2022/10/04 00:49:46;;;;;;;4.53;1.95;;;12.80;99.90;;;;;;4977096;28;20076;-80
2022/10/04 00:52:22;;;;;;;4.43;2.25;;;12.80;99.90;;;;;;4957372;29;20075;-80
2022/10/04 00:54:56;;;;;;;4.25;2.28;;;12.80;99.90;;;;;;4976334;28;20019;-80
2022/10/04 00:57:24;;;;;;;;;;;12.70;99.90;;;;;;4976466;28;20449;-79
2022/10/04 01:00:05;;;;;;;2.55;1.70;;;12.70;99.90;;;;;;4976049;28;19989;-79
2022/10/04 01:02:44;;;;;;;3.90;2.08;;;12.70;99.90;;;;;;4959817;28;20023;-79
2022/10/04 01:05:36;;;;;;;4.32;2.10;;;12.70;99.90;;;;;;4977475;28;20094;-79
2022/10/04 01:08:06;;;;;;;3.35;1.95;;;12.70;99.90;;;;;;4977725;28;20027;-79
2022/10/04 01:10:51;;;;;;;3.78;1.92;;;12.70;99.90;;;;;;4977347;28;20459;-79
2022/10/04 01:13:36;;;;;;;4.15;1.95;;;12.70;99.90;;;;;;4976198;28;20027;-79
2022/10/04 01:16:33;;;;;;;6.13;2.38;;;12.70;99.90;;;;;;4975994;28;20094;-79
2022/10/04 01:19:23;;;;;;;3.45;2.10;;;12.70;99.90;;;;;;4976231;28;20050;-78
2022/10/04 01:22:15;;;;;;;;;;;12.80;99.90;;;;;;4977382;28;20027;-79
2022/10/04 01:24:43;;;;;;;3.10;1.67;;;12.70;99.90;;;;;;4947739;28;19902;-79
2022/10/04 01:27:44;;;;;;;3.92;2.05;;;12.70;99.90;;;;;;4959187;28;20325;-79
2022/10/04 01:30:13;;;;;;;3.70;2.00;;;12.70;99.90;;;;;;4960851;28;20058;-79
2022/10/04 01:32:40;;;;;;;5.47;2.00;;;12.70;99.90;;;;;;4972438;28;20022;-79
2022/10/04 01:35:09;;;;;;;3.40;1.92;;;12.70;99.90;;;;;;4965563;28;20023;-78
2022/10/04 01:37:35;;;;;;;3.92;2.20;;;12.70;99.90;;;;;;4979588;28;20035;-80
2022/10/04 01:40:02;;;;;;;4.10;2.22;;;12.60;99.90;;;;;;4975364;28;20113;-79
2022/10/04 01:42:41;;;;;;;3.67;2.03;;;12.60;99.90;;;;;;4964515;28;20012;-78
2022/10/04 01:45:47;;;;;;;4.82;2.60;;;12.60;99.90;;;;;;4965518;28;20019;-79
2022/10/04 01:48:24;;;;;;;5.30;2.30;;;12.60;99.90;;;;;;4975377;28;20027;-79
2022/10/04 01:50:59;;;;;;;5.75;2.33;;;12.50;99.90;;;;;;4975375;28;20053;-79
2022/10/04 01:53:31;;;;;;;5.13;2.30;;;12.50;99.90;;;;;;4961725;28;20019;-79
2022/10/04 01:56:13;;;;;;;4.07;2.72;;;12.50;99.90;;;;;;4975302;28;20054;-79
2022/10/04 01:58:47;;;;;;;4.50;1.90;;;12.60;99.90;;;;;;4959457;28;20050;-78
2022/10/04 02:01:30;;;;;;;3.22;1.83;;;12.60;99.90;;;;;;4959571;28;20035;-79
2022/10/04 02:04:02;;;;;;;;;;;12.50;99.90;;;;;;4983024;28;20114;-78
2022/10/04 02:06:35;;;;;;;4.57;1.85;;;12.50;99.90;;;;;;4996802;28;19924;-78
2022/10/04 02:09:11;;;;;;;6.25;2.60;;;12.40;99.90;;;;;;4986052;28;20030;-79
2022/10/04 02:11:43;;;;;;;5.90;2.80;;;12.40;99.90;;;;;;4975913;28;20109;-79
2022/10/04 02:14:20;;;;;;;5.10;2.58;;;12.40;99.90;;;;;;4976162;28;20019;-78
2022/10/04 02:16:52;;;;;;;5.30;2.60;;;12.30;99.90;;;;;;4975401;28;20023;-79
2022/10/04 02:19:35;;;;;;;4.75;2.90;;;12.30;99.90;;;;;;4975297;28;20018;-78
2022/10/04 02:22:06;;;;;;;3.75;2.70;;;12.30;99.90;;;;;;4974751;28;20027;-79
2022/10/04 02:24:37;;;;;;;5.82;2.58;;;12.30;99.90;;;;;;4975789;28;20019;-80
2022/10/04 02:27:05;;;;;;;4.43;2.50;;;12.30;99.90;;;;;;4974986;28;20454;-79
2022/10/04 02:29:31;;;;;;;5.05;2.75;;;12.30;99.90;;;;;;4975150;28;20097;-79
2022/10/04 02:34:46;;;;;;;4.82;2.67;;;12.40;99.90;;;;;;4964407;28;20105;-79
2022/10/04 02:37:14;;;;;;;5.45;2.65;;;12.40;99.90;;;;;;4974475;28;20041;-80
2022/10/04 02:40:13;;;;;;;5.60;3.10;;;12.40;99.90;;;;;;4975598;28;20027;-79
2022/10/04 02:42:42;;;;;;;4.05;2.72;;;12.30;99.90;;;;;;4973824;28;20016;-79
2022/10/04 02:45:27;;;;;;;4.65;2.85;;;12.30;99.90;;;;;;4990319;28;20022;-79
2022/10/04 02:48:00;;;;;;;5.30;2.92;;;12.20;99.90;;;;;;4974129;28;20022;-79
2022/10/04 02:50:34;;;;;;;4.80;2.88;;;12.20;99.90;;;;;;4958808;28;20030;-79
2022/10/04 02:53:21;;;;;;;5.85;3.58;;;12.10;99.90;;;;;;4974429;28;20387;-79
2022/10/04 02:55:51;;;;;;;5.63;3.38;;;12.10;99.90;;;;;;4975729;28;20466;-79
2022/10/04 02:58:20;;;;;;;6.97;3.30;;;12.00;99.90;;;;;;4973700;28;20105;-79
2022/10/04 03:00:50;;;;;;;5.78;3.25;;;12.00;99.90;;;;;;4958442;28;20030;-79
2022/10/04 03:03:22;;;;;;;5.63;3.90;;;12.00;99.90;;;;;;4957930;28;20446;-79
2022/10/04 03:06:10;;;;;;;6.65;3.42;;;11.90;99.90;;;;;;4990092;28;20054;-79
2022/10/04 03:09:02;;;;;;;5.03;3.53;;;11.90;99.90;;;;;;4974393;28;20378;-79
2022/10/04 03:11:33;;;;;;;4.80;2.90;;;11.90;99.90;;;;;;4974979;28;20540;-80
2022/10/04 03:14:02;;;;;;;5.07;3.25;;;11.80;99.90;;;;;;4974542;28;20037;-79
2022/10/04 03:16:41;;;;;;;3.88;2.90;;;11.80;99.90;;;;;;4973782;28;20034;-80
2022/10/04 03:19:11;;;;;;;6.70;3.20;;;11.70;99.90;;;;;;4974105;28;20113;-79
2022/10/04 03:21:39;;;;;;;6.18;3.17;;;11.70;99.90;;;;;;4973810;28;20050;-80
2022/10/04 03:24:06;;;;;;;6.25;3.78;;;11.60;99.90;;;;;;4974809;28;20015;-79
2022/10/04 03:26:50;;;;;;;5.38;3.45;;;11.60;99.90;;;;;;4974037;28;20356;-80
2022/10/04 03:29:18;;;;;;;4.40;3.38;;;11.60;99.90;;;;;;4974854;28;20088;-79
2022/10/04 03:31:49;;;;;;;7.07;4.18;;;11.50;99.90;;;;;;4973527;28;20450;-80
2022/10/04 03:34:23;;;;;;;5.90;3.50;;;11.50;99.90;;;;;;4960974;28;20038;-79
2022/10/04 03:36:55;;;;;;;6.78;3.50;;;11.40;99.90;;;;;;4957680;28;20120;-80
2022/10/04 03:39:42;;;;;;;5.00;3.80;;;11.40;99.90;;;;;;4973940;28;20019;-80
2022/10/04 03:42:23;;;;;;;5.55;3.08;;;11.30;99.90;;;;;;4969100;28;20493;-80
2022/10/04 03:44:53;;;;;;;4.93;3.42;;;11.30;99.90;;;;;;4973987;28;20018;-80
2022/10/04 03:47:43;;;;;;;7.55;3.58;;;11.30;99.90;;;;;;4973657;28;20022;-80
2022/10/04 03:50:20;;;;;;;5.22;3.38;;;11.20;99.90;;;;;;4974010;28;20022;-80
2022/10/04 03:52:53;;;;;;;5.07;3.35;;;11.20;99.90;;;;;;4977617;28;20026;-79
2022/10/04 03:55:21;;;;;;;8.02;4.22;;;11.10;99.90;;;;;;4977724;28;20466;-80
2022/10/04 03:57:48;;;;;;;4.78;3.15;;;11.10;99.90;;;;;;4977808;28;20117;-80
2022/10/04 04:00:20;;;;;;;6.38;3.80;;;11.00;99.90;;;;;;4979173;28;20047;-79
2022/10/04 04:02:57;;;;;;;4.25;3.22;;;11.00;99.90;;;;;;4995861;28;20038;-78
2022/10/04 04:05:30;;;;;;;5.00;3.70;;;10.90;99.90;;;;;;4990976;28;20095;-78
2022/10/04 04:08:13;;;;;;;4.57;3.55;;;10.90;99.90;;;;;;4985071;28;20370;-79
2022/10/04 04:10:59;;;;;;;6.93;3.60;;;10.80;99.90;;;;;;4980261;28;20102;-79
2022/10/04 04:13:48;;;;;;;5.57;3.30;;;10.80;99.90;;;;;;4963331;28;20441;-79
2022/10/04 04:16:18;;;;;;;4.85;3.70;;;10.70;99.90;;;;;;4977802;28;20034;-79
2022/10/04 04:18:47;;;;;;;5.25;3.63;;;10.70;99.90;;;;;;4979262;28;20027;-79
2022/10/04 04:21:22;;;;;;;6.45;3.95;;;10.60;99.90;;;;;;4977963;28;20475;-79
2022/10/04 04:24:07;;;;;;;6.43;4.05;;;10.60;99.90;;;;;;4977477;28;20454;-79
2022/10/04 04:26:35;;;;;;;4.97;3.70;;;10.60;99.90;;;;;;4977592;28;20033;-79
2022/10/04 04:29:11;;;;;;;5.40;3.67;;;10.50;99.90;;;;;;4978064;28;20074;-79
2022/10/04 04:31:51;;;;;;;5.15;3.60;;;10.50;99.90;;;;;;4977059;28;20041;-79
2022/10/04 04:34:26;;;;;;;7.65;4.60;;;10.50;99.90;;;;;;4964602;28;20122;-79
2022/10/04 04:37:02;;;;;;;6.18;3.72;;;10.50;99.90;;;;;;4977519;28;20015;-79
2022/10/04 04:39:43;;;;;;;6.03;4.35;;;10.40;99.90;;;;;;4975994;28;20120;-79
2022/10/04 04:42:22;;;;;;;5.22;4.03;;;10.40;99.90;;;;;;4972583;28;20527;-79
2022/10/04 04:45:15;;;;;;;5.20;3.45;;;10.30;99.90;;;;;;4991087;28;20026;-79
2022/10/04 04:47:49;;;;;;;5.38;3.53;;;10.30;99.90;;;;;;4974710;28;20336;-79
2022/10/04 04:50:20;;;;;;;6.63;3.63;;;10.30;99.90;;;;;;4976704;28;20031;-79
2022/10/04 04:52:53;;;;;;;5.38;3.80;;;10.30;99.90;;;;;;4973958;28;20018;-78
2022/10/04 04:55:25;;;;;;;5.13;3.70;;;10.20;99.90;;;;;;4975069;28;20077;-79
2022/10/04 04:57:54;;;;;;;5.25;3.70;;;10.20;99.90;;;;;;4959528;28;20049;-79
2022/10/04 05:00:26;;;;;;;5.18;3.75;;;10.10;99.90;;;;;;4972055;28;20046;-78
2022/10/04 05:03:00;;;;;;;7.18;4.70;;;10.10;99.90;;;;;;4974093;28;20122;-79
2022/10/04 05:05:33;;;;;;;5.85;3.88;;;10.10;99.90;;;;;;4975298;28;20027;-79
2022/10/04 05:08:28;;;;;;;7.60;3.88;;;10.10;99.90;;;;;;4974597;28;20034;-79
2022/10/04 05:10:57;;;;;;;6.45;3.88;;;10.00;99.90;;;;;;4969096;28;20031;-78
2022/10/04 05:13:47;;;;;;;5.47;3.60;;;10.00;99.90;;;;;;4974390;28;20456;-79
2022/10/04 05:16:40;;;;;;;7.72;3.60;;;10.00;99.90;;;;;;4966876;28;20098;-79
2022/10/04 05:19:12;;;;;;;6.97;3.33;;;9.90;99.90;;;;;;4989398;28;20023;-79
2022/10/04 05:21:43;;;;;;;6.63;3.40;;;9.90;99.90;;;;;;4973838;28;20035;-79
2022/10/04 05:24:18;;;;;;;5.18;3.70;;;9.90;99.90;;;;;;4974262;28;20034;-79
2022/10/04 05:26:48;;;;;;;5.63;3.75;;;9.90;99.90;;;;;;4987272;28;20145;-79
2022/10/04 05:29:21;;;;;;;5.95;3.75;;;9.90;99.90;;;;;;4959031;28;20542;-79
2022/10/04 05:32:12;;;;;;;4.32;3.08;;;9.90;99.90;;;;;;4974186;28;20432;-79
2022/10/04 05:34:44;;;;;;;6.25;3.70;;;9.80;99.90;;;;;;4974478;28;20034;-79
2022/10/04 05:37:19;;;;;;;4.93;3.33;;;9.80;99.90;;;;;;4990347;28;20054;-79
2022/10/04 05:40:09;;;;;;;6.82;3.60;;;9.80;99.90;;;;;;4975375;28;20058;-79
2022/10/04 05:42:46;;;;;;;4.90;3.22;;;9.90;99.90;;;;;;4974868;28;20019;-79
2022/10/04 05:45:30;;;;;;;5.45;3.22;;;9.80;99.90;;;;;;4975023;28;20019;-79
2022/10/04 05:47:59;;;;;;;7.22;3.72;;;9.90;99.90;;;;;;4975235;28;20030;-79
2022/10/04 05:50:39;;;;;;;6.22;3.55;;;9.80;99.90;;;;;;4967449;28;20455;-79
2022/10/04 05:53:15;;;;;;;6.88;3.80;;;9.90;99.90;;;;;;4974923;28;20022;-79
2022/10/04 05:55:49;;;;;;;5.82;3.53;;;9.80;99.90;;;;;;4981153;28;20019;-79
2022/10/04 05:58:18;;;;;;;4.97;3.45;;;9.80;99.90;;;;;;4969428;28;20042;-79
2022/10/04 06:01:31;;;;;;;6.07;4.13;;;9.80;99.90;;;;;;4994404;28;20058;-78
2022/10/04 06:04:15;;;;;;;5.25;3.58;;;9.80;99.90;;;;;;4977507;28;20062;-79
2022/10/04 06:06:49;;;;;;;5.80;3.78;;;9.80;99.90;;;;;;4980844;28;20051;-79
2022/10/04 06:09:37;;;;;;;5.80;3.88;;;9.80;99.90;;;;;;4975521;28;20038;-79
2022/10/04 06:12:28;;;;;;;5.43;3.80;;;9.90;99.90;;;;;;4975359;28;20023;-79
2022/10/04 06:15:13;;;;;;;5.32;3.55;;;9.90;99.90;;;;;;4987981;28;20415;-79
2022/10/04 06:17:50;;;;;;;7.30;4.18;;;9.90;99.90;;;;;;4988997;28;20045;-79
2022/10/04 06:20:19;;;;;;;6.63;3.92;;;9.90;99.90;;;;;;4975218;28;20105;-79
2022/10/04 06:22:56;;;;;;;11.23;4.68;;;10.00;99.90;;;;;;4987995;28;20042;-79
2022/10/04 06:25:32;;;;;;;10.10;4.70;;;10.00;99.90;;;;;;4989745;28;20635;-79
2022/10/04 06:28:22;;;;;;;6.25;4.43;;;10.00;99.90;;;;;;4989171;28;20019;-79
2022/10/04 06:31:09;;;;;;;6.75;4.68;;;10.00;99.90;;;;;;4984937;28;20037;-79
2022/10/04 06:34:08;;;;;;;6.85;4.28;;;10.10;99.90;;;;;;4971779;28;20050;-79
2022/10/04 06:36:58;;;;;;;7.15;4.35;;;10.10;99.90;;;;;;4973327;28;20067;-79
2022/10/04 06:39:58;;;;;;;7.57;3.92;;;10.20;99.90;;;;;;4973355;28;20042;-79
2022/10/04 06:42:32;;;;;;;8.93;4.35;;;10.20;99.90;;;;;;4973583;28;20019;-79
2022/10/04 06:45:35;;;;;;;7.40;5.30;;;10.20;99.90;;;;;;4974324;28;20114;-79
2022/10/04 06:48:04;;;;;;;7.57;4.95;;;10.30;99.90;;;;;;4989623;28;20035;-79
2022/10/04 06:50:50;;;;;;;7.90;5.05;;;10.30;99.90;;;;;;4972958;28;20034;-79
2022/10/04 06:53:54;;;;;;;6.57;5.00;;;10.30;99.90;;;;;;4987419;28;20086;-78
2022/10/04 06:56:32;;;;;;;7.03;4.60;;;10.40;99.90;;;;;;4986422;28;20034;-79
2022/10/04 06:59:17;;;;;;;5.68;3.90;;;10.40;99.90;;;;;;4973752;28;20062;-80
2022/10/04 07:01:56;;;;;;;5.45;4.10;;;10.40;99.90;;;;;;4974770;28;20023;-79
2022/10/04 07:04:32;;;;;;;8.57;4.20;;;10.40;99.90;;;;;;4957850;28;20022;-79
2022/10/04 07:07:34;;;;;;;6.20;4.18;;;10.50;99.90;;;;;;4989467;28;20034;-78
2022/10/04 07:10:12;;;;;;;6.25;3.67;;;10.50;99.90;;;;;;4973295;28;20170;-78
2022/10/04 07:12:41;;;;;;;6.03;4.07;;;10.50;99.90;;;;;;4973344;28;20022;-79
2022/10/04 07:15:22;;;;;;;4.97;3.63;;;10.50;99.90;;;;;;4972859;28;20027;-79
2022/10/04 07:17:51;;;;;;;5.82;3.97;;;10.60;99.90;;;;;;4974300;28;20023;-80
2022/10/04 07:20:27;;;;;;;6.30;3.90;;;10.70;99.90;;;;;;4973111;28;20034;-79
2022/10/04 07:23:21;;;;;;;7.55;4.75;;;10.80;99.90;;;;;;4972841;28;20026;-79
2022/10/04 07:25:51;;;;;;;8.15;5.10;;;10.90;99.90;;;;;;4967108;28;20398;-79
2022/10/04 07:31:18;;;;;;;7.13;4.63;;;11.20;99.90;;;;;;4972730;28;20084;-81
2022/10/04 07:34:00;;;;;;;6.40;4.85;;;11.30;99.90;;;;;;4987477;28;20027;-80
2022/10/04 07:36:51;;;;;;;7.15;4.40;;;11.50;99.90;;;;;;4987178;28;20355;-80
2022/10/04 07:39:26;;;;;;;8.20;5.10;;;11.70;99.90;;;;;;4969573;28;20034;-79
2022/10/04 07:42:06;;;;;;;7.35;4.90;;;11.90;99.90;;;;;;4973412;28;20165;-79
2022/10/04 07:44:35;;;;;;;6.43;3.92;;;12.00;99.90;;;;;;4967980;28;20431;-80
2022/10/04 07:47:21;;;;;;;6.60;5.15;;;12.20;99.90;;;;;;4977251;28;20035;-80
2022/10/04 07:49:52;;;;;;;6.75;4.60;;;12.30;99.90;;;;;;4967925;28;20023;-81
2022/10/04 07:52:44;;;;;;;9.18;4.72;;;12.40;99.90;;;;;;4952727;28;20027;-81
2022/10/04 07:55:31;;;;;;;7.10;4.93;;;12.40;99.90;;;;;;4980273;28;20093;-80
2022/10/04 07:58:20;;;;;;;8.40;5.07;;;12.40;99.90;;;;;;4968645;28;20030;-79
2022/10/04 08:01:18;;;;;;;9.32;4.72;;;12.40;99.90;;;;;;4986453;28;20078;-79
2022/10/04 08:04:12;;;;;;;7.22;4.47;;;12.30;99.90;;;;;;4990130;28;20030;-79
2022/10/04 08:07:00;;;;;;;6.32;3.60;;;12.30;99.90;;;;;;4972458;28;20427;-80
2022/10/04 08:09:41;;;;;;;5.85;4.05;;;12.30;99.90;;;;;;4970992;28;20027;-80
2022/10/04 08:12:17;;;;;;;8.00;4.65;;;12.30;99.90;;;;;;4970447;28;20105;-80
2022/10/04 08:15:16;;;;;;;7.63;4.47;;;12.40;99.90;;;;;;4968676;28;20434;-79
2022/10/04 08:18:03;;;;;;;7.95;4.40;;;12.50;99.90;;;;;;4963602;28;20483;-81
2022/10/04 08:20:53;;;;;;;8.32;5.10;;;12.50;99.90;;;;;;4971947;28;20035;-79
2022/10/04 08:23:46;;;;;;;8.07;5.05;;;12.60;99.90;;;;;;4967664;28;20041;-80
2022/10/04 08:26:27;;;;;;;6.67;4.73;;;12.70;99.90;;;;;;4978541;28;20118;-79
2022/10/04 08:29:43;;;;;;;7.18;4.70;;;12.80;99.90;;;;;;4975232;28;20031;-80
2022/10/04 08:32:28;;;;;;;7.22;4.78;;;12.90;99.90;;;;;;4953386;28;20098;-80
2022/10/04 08:35:22;;;;;;;7.53;4.93;;;13.10;99.90;;;;;;4962290;28;20027;-80
2022/10/04 08:37:57;;;;;;;7.70;4.38;;;13.20;99.90;;;;;;4971869;28;20383;-79
2022/10/04 08:40:43;;;;;;;7.75;4.63;;;13.20;99.90;;;;;;4985602;28;20027;-79
2022/10/04 08:43:28;;;;;;;6.55;4.65;;;13.20;99.90;;;;;;4950039;28;20038;-79
2022/10/04 08:46:12;;;;;;;7.10;4.70;;;13.30;99.90;;;;;;4974359;28;20133;-79
2022/10/04 08:48:59;;;;;;;8.18;5.40;;;13.30;99.90;;;;;;4972994;28;20043;-79
2022/10/04 08:51:34;;;;;;;8.50;4.97;;;13.50;99.90;;;;;;4978903;28;20053;-79
2022/10/04 08:54:19;;;;;;;7.35;4.65;;;13.50;99.90;;;;;;4986365;28;20565;-79
2022/10/04 08:57:09;;;;;;;7.47;5.03;;;13.60;99.90;;;;;;4966997;28;20033;-80
2022/10/04 08:59:56;;;;;;;6.93;5.05;;;13.80;99.90;;;;;;4986199;28;20062;-80
2022/10/04 09:02:34;;;;;;;6.13;4.25;;;13.90;99.90;;;;;;4988291;28;20445;-80
2022/10/04 09:05:13;;;;;;;9.25;6.25;;;14.10;99.90;;;;;;4973193;28;20058;-79
2022/10/04 09:08:14;;;;;;;8.20;4.97;;;14.20;99.90;;;;;;4972147;28;20031;-79
2022/10/04 09:11:35;;;;;;;8.82;6.03;;;14.30;99.90;;;;;;4971597;28;20426;-79
2022/10/04 09:14:42;;;;;;;9.18;5.80;;;14.50;99.90;;;;;;4913234;29;20024;-80
2022/10/04 09:17:19;;;;;;;10.02;5.45;;;14.90;99.90;;;;;;4974020;28;20027;-79
2022/10/04 09:20:15;;;;;;;8.20;5.35;;;16.50;99.90;;;;;;4971816;28;20039;-80
2022/10/04 09:23:11;;;;;;;6.85;4.60;;;18.30;99.90;;;;;;4973542;28;20033;-79
2022/10/04 09:26:07;;;;;;;7.22;4.25;;;19.70;99.90;;;;;;4972400;28;20488;-80
2022/10/04 09:29:10;;;;;;;6.05;3.63;;;20.90;99.90;;;;;;4976275;28;20035;-80
2022/10/04 09:31:39;;;;;;;5.78;2.90;;;21.90;99.90;;;;;;4971664;28;20235;-80
2022/10/04 09:34:26;;;;;;;8.55;3.42;;;22.70;99.90;;;;;;4969076;28;20031;-80
2022/10/04 09:37:07;;;;;;;6.28;3.20;;;23.30;99.90;;;;;;4968485;28;20122;-80
2022/10/04 09:39:51;;;;;;;4.43;2.75;;;23.50;99.90;;;;;;4986573;28;20023;-80
2022/10/04 09:42:44;;;;;;;4.65;3.10;;;23.90;99.90;;;;;;4970940;28;20041;-80
2022/10/04 09:45:26;;;;;;;6.82;2.55;;;24.40;99.90;;;;;;4986960;28;20031;-80
2022/10/04 09:48:23;;;;;;;7.57;3.55;;;24.80;99.90;;;;;;4987450;28;20041;-81
2022/10/04 09:51:08;;;;;;;3.90;2.10;;;25.10;99.90;;;;;;4971279;28;20537;-81
2022/10/04 09:53:50;;;;;;;4.65;2.25;;;25.30;99.90;;;;;;4974309;28;20028;-79
2022/10/04 09:56:19;;;;;;;3.97;2.10;;;25.50;99.90;;;;;;4985162;28;20441;-79
2022/10/04 09:59:17;;;;;;;5.35;2.30;;;25.80;99.90;;;;;;4992604;28;20035;-81
2022/10/04 10:01:46;;;;;;;3.95;2.15;;;25.80;99.90;;;;;;4968560;28;20118;-80
2022/10/04 10:04:44;;;;;;;3.13;1.90;;;25.80;99.90;;;;;;4973316;28;20428;-80
2022/10/04 10:07:20;;;;;;;5.15;1.77;;;25.90;99.90;;;;;;4983344;28;20038;-80
2022/10/04 10:15:47;;;;;;;3.60;1.83;;;26.90;99.90;;;;;;4971884;28;20037;-80
2022/10/04 10:18:41;;;;;;;40.13;7.18;;;26.90;99.90;;;;;;4970723;28;20034;-80
2022/10/04 10:21:11;;;;;;;15.07;4.10;;;27.20;99.90;;;;;;4969306;28;20023;-81
2022/10/04 10:24:02;;;;;;;7.47;2.28;;;27.10;99.90;;;;;;4967960;28;20026;-80
2022/10/04 10:26:54;;;;;;;6.65;1.85;;;27.20;99.90;;;;;;4982634;28;20125;-80
2022/10/04 10:29:49;;;;;;;5.90;2.20;;;27.60;99.90;;;;;;4982784;28;20037;-81
2022/10/04 10:32:39;;;;;;;4.20;1.60;;;27.80;99.90;;;;;;4954588;28;20089;-80
2022/10/04 10:35:27;;;;;;;4.90;1.48;;;27.70;99.90;;;;;;4964902;28;20035;-80
2022/10/04 10:38:14;;;;;;;4.05;2.05;;;27.80;99.90;;;;;;4971382;28;20046;-80
2022/10/04 10:40:51;;;;;;;3.40;1.65;;;27.70;99.90;;;;;;4967370;28;20037;-80
2022/10/04 10:43:34;;;;;;;3.15;1.42;;;27.70;99.90;;;;;;4970028;28;20062;-80
2022/10/04 10:45:59;;;;;;;3.88;1.55;;;27.70;99.90;;;;;;4984821;28;20039;-80
2022/10/04 10:48:34;;;;;;;2.72;1.35;;;28.10;99.90;;;;;;4968601;28;20077;-80
2022/10/04 10:51:09;;;;;;;2.65;1.70;;;28.70;99.80;;;;;;4968504;28;20031;-80
2022/10/04 10:54:12;;;;;;;4.90;2.40;;;29.20;99.30;;;;;;4970664;28;20093;-80
2022/10/04 10:56:56;;;;;;;;;;;29.30;98.50;;;;;;4970581;28;20027;-80
2022/10/04 10:59:35;;;;;;;4.45;1.83;;;29.20;99.00;;;;;;4968349;28;19929;-79
2022/10/04 11:02:20;;;;;;;4.03;2.00;;;29.30;98.60;;;;;;4969641;28;20478;-80
2022/10/04 11:05:24;;;;;;;3.28;1.63;;;29.30;98.10;;;;;;4967442;28;20034;-80
2022/10/04 11:07:55;;;;;;;3.90;2.03;;;29.10;98.30;;;;;;4983922;28;20038;-79
2022/10/04 11:10:50;;;;;;;4.05;1.80;;;29.30;98.00;;;;;;4967763;28;20093;-79
2022/10/04 11:13:53;;;;;;;4.05;1.85;;;29.60;97.90;;;;;;4967329;28;20031;-80
2022/10/04 11:16:58;;;;;;;3.22;1.67;;;29.80;97.00;;;;;;4969845;28;20031;-79
2022/10/04 11:19:36;;;;;;;;;;;29.80;96.60;;;;;;4969724;28;20108;-78
2022/10/04 11:22:21;;;;;;;5.07;1.83;;;29.50;97.10;;;;;;4981635;28;20354;-78
2022/10/04 11:24:58;;;;;;;5.68;2.35;;;29.40;97.00;;;;;;4982675;28;20513;-79
2022/10/04 11:27:46;;;;;;;5.47;2.05;;;29.20;96.00;;;;;;4982923;28;20031;-79
2022/10/04 11:30:23;;;;;;;3.63;1.50;;;28.80;96.30;;;;;;4985284;28;20038;-78
2022/10/04 11:33:27;;;;;;;3.33;1.85;;;29.00;96.30;;;;;;4967250;28;20497;-79
2022/10/04 11:36:26;;;;;;;1.98;1.30;;;29.10;95.80;;;;;;4983668;28;20138;-79
2022/10/04 11:39:23;;;;;;;3.70;1.77;;;29.40;96.20;;;;;;4981054;28;20045;-79
2022/10/04 11:42:30;;;;;;;3.38;1.70;;;29.90;95.70;;;;;;4968152;28;20093;-80
2022/10/04 11:44:59;;;;;;;5.43;1.98;;;30.40;95.40;;;;;;4960053;28;20147;-80
2022/10/04 11:47:40;;;;;;;3.47;1.70;;;29.90;94.20;;;;;;4968886;28;20035;-80
2022/10/04 11:50:43;;;;;;;3.53;1.58;;;29.50;94.60;;;;;;4981430;28;20145;-78
2022/10/04 11:53:20;;;;;;;4.10;1.92;;;29.30;94.80;;;;;;4979678;28;20047;-80
2022/10/04 11:56:09;;;;;;;2.92;1.40;;;29.40;94.90;;;;;;4970021;28;20027;-79
2022/10/04 11:58:57;;;;;;;4.72;1.70;;;29.70;94.40;;;;;;4965038;28;20037;-79
2022/10/04 12:01:41;;;;;;;2.63;1.38;;;29.50;93.30;;;;;;4968581;28;20069;-80
2022/10/04 12:04:30;;;;;;;3.83;1.58;;;29.80;93.90;;;;;;4981502;28;20366;-80
2022/10/04 12:07:22;;;;;;;5.10;1.88;;;29.70;93.80;;;;;;4963730;28;20098;-80
2022/10/04 12:10:00;;;;;;;3.63;1.50;;;29.20;94.30;;;;;;4967401;28;20074;-79
2022/10/04 12:13:06;;;;;;;3.30;1.60;;;28.30;94.60;;;;;;4969171;28;20122;-79
2022/10/04 12:15:54;;;;;;;3.70;1.40;;;27.90;95.20;;;;;;4954417;28;20097;-81
2022/10/04 12:18:44;;;;;;;4.18;1.80;;;27.70;95.20;;;;;;4986016;28;20455;-80
2022/10/04 12:21:28;;;;;;;2.88;1.35;;;27.30;95.80;;;;;;4953414;28;20046;-79
2022/10/04 12:24:05;;;;;;;3.05;1.70;;;26.70;96.10;;;;;;4971707;28;20033;-79
2022/10/04 12:27:01;;;;;;;3.55;1.60;;;26.50;96.80;;;;;;4971219;28;20026;-80
2022/10/04 12:29:55;;;;;;;3.38;1.33;;;26.10;97.20;;;;;;4984545;28;20118;-79
2022/10/04 12:32:42;;;;;;;4.80;1.90;;;25.90;98.00;;;;;;4967120;28;20066;-79
2022/10/04 12:35:24;;;;;;;3.28;1.50;;;25.90;98.10;;;;;;4961882;28;20023;-80
2022/10/04 12:38:21;;;;;;;2.03;1.40;;;25.50;98.60;;;;;;4972494;28;20106;-79
2022/10/04 12:41:13;;;;;;;3.00;1.17;;;25.40;99.00;;;;;;4985931;28;20035;-80
2022/10/04 12:44:02;;;;;;;2.92;1.35;;;26.20;98.90;;;;;;4970618;28;20061;-80
2022/10/04 12:46:53;;;;;;;5.00;1.27;;;27.40;98.70;;;;;;4984897;28;20053;-81
2022/10/04 12:49:31;;;;;;;2.20;1.10;;;28.60;97.90;;;;;;4984532;28;20145;-81
2022/10/04 12:52:23;;;;;;;3.33;1.33;;;29.50;97.20;;;;;;4969712;28;20062;-80
2022/10/04 12:55:10;;;;;;;7.22;1.38;;;29.60;96.60;;;;;;4980461;28;20027;-80
2022/10/04 12:58:06;;;;;;;2.88;1.45;;;29.50;96.70;;;;;;4970277;28;20077;-80
2022/10/04 13:00:40;;;;;;;3.55;1.58;;;29.00;97.00;;;;;;4987700;28;20053;-81
2022/10/04 13:03:31;;;;;;;4.72;1.35;;;29.40;96.60;;;;;;4956858;28;20102;-81
2022/10/04 13:06:21;;;;;;;3.05;1.15;;;29.80;96.40;;;;;;4928940;29;20031;-81
2022/10/04 13:09:08;;;;;;;2.05;1.23;;;30.10;95.60;;;;;;4969117;28;20437;-80
2022/10/04 13:12:00;;;;;;;2.38;1.20;;;30.00;95.50;;;;;;4972372;28;20042;-81
2022/10/04 13:15:10;;;;;;;3.97;1.63;;;30.30;94.80;;;;;;4979280;28;20026;-80
2022/10/04 13:17:58;;;;;;;2.75;1.30;;;30.50;94.70;;;;;;4945327;28;20039;-80
2022/10/04 13:20:42;;;;;;;2.60;1.00;;;30.40;94.70;;;;;;4970994;28;20541;-79
2022/10/04 13:23:31;;;;;;;2.10;0.90;;;30.60;95.00;;;;;;4967842;28;20118;-80
2022/10/04 13:26:24;;;;;;;2.83;1.27;;;30.50;94.80;;;;;;4950486;29;20177;-80
2022/10/04 13:29:14;;;;;;;4.50;1.40;;;30.20;93.80;;;;;;4973724;28;20045;-80
2022/10/04 13:32:09;;;;;;;4.40;1.55;;;29.90;94.40;;;;;;4969466;28;20126;-81
2022/10/04 13:34:56;;;;;;;3.33;1.40;;;29.80;94.40;;;;;;4966281;28;20046;-80
2022/10/04 13:37:30;;;;;;;2.75;1.25;;;29.80;93.90;;;;;;4969766;28;20038;-80
2022/10/04 13:40:23;;;;;;;2.38;1.10;;;29.90;93.80;;;;;;4972736;28;20030;-79
2022/10/04 13:42:55;;;;;;;2.33;1.10;;;29.70;93.50;;;;;;4985582;28;20027;-79
2022/10/04 13:45:30;;;;;;;4.85;1.20;;;29.60;93.60;;;;;;4991886;28;20031;-80
2022/10/04 13:48:28;;;;;;;2.10;1.00;;;29.40;93.20;;;;;;4996901;28;20042;-80
2022/10/04 13:51:02;;;;;;;3.58;1.25;;;29.30;93.60;;;;;;4971528;28;20463;-80
2022/10/04 13:56:42;;;;;;;2.00;1.00;;;28.90;93.40;;;;;;4973261;28;20054;-81
2022/10/04 13:59:33;;;;;;;2.10;1.15;;;28.70;93.60;;;;;;4970837;28;20502;-79
2022/10/04 14:02:27;;;;;;;3.38;1.35;;;28.70;93.90;;;;;;4969351;28;20414;-80
2022/10/04 14:04:56;;;;;;;4.85;1.40;;;27.90;94.40;;;;;;4971608;28;20026;-81
2022/10/04 14:07:43;;;;;;;3.88;1.60;;;27.60;95.00;;;;;;4970909;28;20414;-80
2022/10/04 14:10:41;;;;;;;4.10;1.40;;;27.60;95.10;;;;;;4967764;28;20039;-80
2022/10/04 14:13:59;;;;;;;2.33;1.30;;;27.40;95.30;;;;;;4962460;28;20039;-79
2022/10/04 14:16:33;;;;;;;3.15;1.45;;;27.40;95.60;;;;;;4959488;28;20043;-80
2022/10/04 14:19:18;;;;;;;3.53;1.42;;;27.10;95.70;;;;;;4983414;28;20803;-81